sensor_id;sensor_type;location;lat;lon;timestamp;temperature;humidity
62904;DHT22;49000;50.698;13.322;2022-11-23T00:00:43;-0.30;99.90
62904;DHT22;49000;50.698;13.322;2022-11-23T00:03:13;-0.20;99.90
62904;DHT22;49000;50.698;13.322;2022-11-23T00:05:39;-0.70;99.90
62904;DHT22;49000;50.698;13.322;2022-11-23T00:08:05;-0.30;99.90
62904;DHT22;49000;50.698;13.322;2022-11-23T00:10:30;-0.20;99.90
62904;DHT22;49000;50.698;13.322;2022-11-23T00:12:56;-0.60;99.90
62904;DHT22;49000;50.698;13.322;2022-11-23T00:15:21;-0.20;99.90
62904;DHT22;49000;50.698;13.322;2022-11-23T00:17:47;-0.70;99.90
62904;DHT22;49000;50.698;13.322;2022-11-23T00:20:12;-0.20;99.90
62904;DHT22;49000;50.698;13.322;2022-11-23T00:22:38;-0.30;99.90
62904;DHT22;49000;50.698;13.322;2022-11-23T00:25:04;0.00;99.90
62904;DHT22;49000;50.698;13.322;2022-11-23T00:27:29;-0.20;99.90
62904;DHT22;49000;50.698;13.322;2022-11-23T00:29:55;-0.10;99.90
62904;DHT22;49000;50.698;13.322;2022-11-23T00:32:20;-0.20;99.90
62904;DHT22;49000;50.698;13.322;2022-11-23T00:34:46;-0.20;99.90
62904;DHT22;49000;50.698;13.322;2022-11-23T00:37:11;0.00;99.90
62904;DHT22;49000;50.698;13.322;2022-11-23T00:39:37;-0.70;99.90
62904;DHT22;49000;50.698;13.322;2022-11-23T00:42:02;-0.10;99.90
62904;DHT22;49000;50.698;13.322;2022-11-23T00:44:28;-0.10;99.90
62904;DHT22;49000;50.698;13.322;2022-11-23T00:46:53;-0.20;99.90
62904;DHT22;49000;50.698;13.322;2022-11-23T00:49:19;-0.10;99.90
62904;DHT22;49000;50.698;13.322;2022-11-23T00:51:46;-0.30;99.90
62904;DHT22;49000;50.698;13.322;2022-11-23T00:54:11;-0.70;99.90
62904;DHT22;49000;50.698;13.322;2022-11-23T00:56:37;-0.40;99.90
62904;DHT22;49000;50.698;13.322;2022-11-23T00:59:03;-0.60;99.90
62904;DHT22;49000;50.698;13.322;2022-11-23T01:01:31;-0.40;99.90
62904;DHT22;49000;50.698;13.322;2022-11-23T01:04:03;-0.30;99.90
62904;DHT22;49000;50.698;13.322;2022-11-23T01:06:35;-0.40;99.90
62904;DHT22;49000;50.698;13.322;2022-11-23T01:09:04;-0.40;99.90
62904;DHT22;49000;50.698;13.322;2022-11-23T01:11:31;-0.50;99.90
62904;DHT22;49000;50.698;13.322;2022-11-23T01:13:57;-0.40;99.90
62904;DHT22;49000;50.698;13.322;2022-11-23T01:16:34;-0.50;99.90
62904;DHT22;49000;50.698;13.322;2022-11-23T01:19:03;-0.30;99.90
62904;DHT22;49000;50.698;13.322;2022-11-23T01:21:32;-0.40;99.90
62904;DHT22;49000;50.698;13.322;2022-11-23T01:23:58;-0.40;99.90
62904;DHT22;49000;50.698;13.322;2022-11-23T01:26:24;-0.40;99.90
62904;DHT22;49000;50.698;13.322;2022-11-23T01:28:50;-0.40;99.90
62904;DHT22;49000;50.698;13.322;2022-11-23T01:31:18;-0.30;99.90
62904;DHT22;49000;50.698;13.322;2022-11-23T01:33:45;-0.70;99.90
62904;DHT22;49000;50.698;13.322;2022-11-23T01:36:17;-0.70;99.90
62904;DHT22;49000;50.698;13.322;2022-11-23T01:38:43;-0.40;99.90
62904;DHT22;49000;50.698;13.322;2022-11-23T01:41:12;-0.30;99.90
62904;DHT22;49000;50.698;13.322;2022-11-23T01:43:38;-0.40;99.90
62904;DHT22;49000;50.698;13.322;2022-11-23T01:46:04;-0.20;99.90
62904;DHT22;49000;50.698;13.322;2022-11-23T01:48:31;-0.30;99.90
62904;DHT22;49000;50.698;13.322;2022-11-23T01:51:00;-0.30;99.90
62904;DHT22;49000;50.698;13.322;2022-11-23T01:53:28;-0.20;99.90
62904;DHT22;49000;50.698;13.322;2022-11-23T01:55:57;-0.30;99.90
62904;DHT22;49000;50.698;13.322;2022-11-23T01:58:24;-0.30;99.90
62904;DHT22;49000;50.698;13.322;2022-11-23T02:00:50;-0.20;99.90
62904;DHT22;49000;50.698;13.322;2022-11-23T02:03:16;-0.10;99.90
62904;DHT22;49000;50.698;13.322;2022-11-23T02:05:45;-0.10;99.90
62904;DHT22;49000;50.698;13.322;2022-11-23T02:08:14;-0.10;99.90
62904;DHT22;49000;50.698;13.322;2022-11-23T02:10:41;-0.30;99.90
62904;DHT22;49000;50.698;13.322;2022-11-23T02:13:09;-0.30;99.90
62904;DHT22;49000;50.698;13.322;2022-11-23T02:15:36;-0.20;99.90
62904;DHT22;49000;50.698;13.322;2022-11-23T02:18:05;-0.20;99.90
62904;DHT22;49000;50.698;13.322;2022-11-23T02:20:33;-0.30;99.90
62904;DHT22;49000;50.698;13.322;2022-11-23T02:28:16;-0.10;99.90
62904;DHT22;49000;50.698;13.322;2022-11-23T02:30:47;-0.10;99.90
62904;DHT22;49000;50.698;13.322;2022-11-23T02:33:13;-0.10;99.90
62904;DHT22;49000;50.698;13.322;2022-11-23T02:38:15;0.00;99.90
62904;DHT22;49000;50.698;13.322;2022-11-23T02:40:42;-0.40;99.90
62904;DHT22;49000;50.698;13.322;2022-11-23T02:43:07;0.00;99.90
62904;DHT22;49000;50.698;13.322;2022-11-23T02:45:40;-0.30;99.90
62904;DHT22;49000;50.698;13.322;2022-11-23T02:48:07;0.00;99.90
62904;DHT22;49000;50.698;13.322;2022-11-23T02:50:32;-0.10;99.90
62904;DHT22;49000;50.698;13.322;2022-11-23T02:52:58;-0.20;99.90
62904;DHT22;49000;50.698;13.322;2022-11-23T02:55:23;0.00;99.90
62904;DHT22;49000;50.698;13.322;2022-11-23T02:57:49;-0.40;99.90
62904;DHT22;49000;50.698;13.322;2022-11-23T03:00:15;0.00;99.90
62904;DHT22;49000;50.698;13.322;2022-11-23T03:02:41;-0.10;99.90
62904;DHT22;49000;50.698;13.322;2022-11-23T03:05:07;-0.20;99.90
62904;DHT22;49000;50.698;13.322;2022-11-23T03:07:32;-0.20;99.90
62904;DHT22;49000;50.698;13.322;2022-11-23T03:09:58;-0.10;99.90
62904;DHT22;49000;50.698;13.322;2022-11-23T03:12:23;0.00;99.90
62904;DHT22;49000;50.698;13.322;2022-11-23T03:14:49;0.00;99.90
62904;DHT22;49000;50.698;13.322;2022-11-23T03:17:14;0.10;99.90
62904;DHT22;49000;50.698;13.322;2022-11-23T03:19:40;0.00;99.90
62904;DHT22;49000;50.698;13.322;2022-11-23T03:22:05;0.10;99.90
62904;DHT22;49000;50.698;13.322;2022-11-23T03:24:31;0.10;99.90
62904;DHT22;49000;50.698;13.322;2022-11-23T03:26:57;-0.30;99.90
62904;DHT22;49000;50.698;13.322;2022-11-23T03:29:22;0.20;99.90
62904;DHT22;49000;50.698;13.322;2022-11-23T03:31:51;0.20;99.90
62904;DHT22;49000;50.698;13.322;2022-11-23T03:34:16;0.10;99.90
62904;DHT22;49000;50.698;13.322;2022-11-23T03:36:42;0.00;99.90
62904;DHT22;49000;50.698;13.322;2022-11-23T03:39:08;0.00;99.90
62904;DHT22;49000;50.698;13.322;2022-11-23T03:41:33;-0.20;99.90
62904;DHT22;49000;50.698;13.322;2022-11-23T03:43:59;0.10;99.90
62904;DHT22;49000;50.698;13.322;2022-11-23T03:46:24;0.20;99.90
62904;DHT22;49000;50.698;13.322;2022-11-23T03:48:50;0.10;99.90
62904;DHT22;49000;50.698;13.322;2022-11-23T03:51:15;0.30;99.90
62904;DHT22;49000;50.698;13.322;2022-11-23T03:53:41;0.00;99.90
62904;DHT22;49000;50.698;13.322;2022-11-23T03:56:07;0.30;99.90
62904;DHT22;49000;50.698;13.322;2022-11-23T03:58:32;0.10;99.90
62904;DHT22;49000;50.698;13.322;2022-11-23T04:00:58;0.20;99.90
62904;DHT22;49000;50.698;13.322;2022-11-23T04:03:23;0.00;99.90
62904;DHT22;49000;50.698;13.322;2022-11-23T04:05:49;0.30;99.90
62904;DHT22;49000;50.698;13.322;2022-11-23T04:08:14;0.00;99.90
62904;DHT22;49000;50.698;13.322;2022-11-23T04:10:40;0.40;99.90
62904;DHT22;49000;50.698;13.322;2022-11-23T04:13:05;-0.20;99.90
62904;DHT22;49000;50.698;13.322;2022-11-23T04:15:31;0.10;99.90
62904;DHT22;49000;50.698;13.322;2022-11-23T04:17:56;0.10;99.90
62904;DHT22;49000;50.698;13.322;2022-11-23T04:20:22;0.10;99.90
62904;DHT22;49000;50.698;13.322;2022-11-23T04:22:47;-0.30;99.90
62904;DHT22;49000;50.698;13.322;2022-11-23T04:25:13;0.30;99.90
62904;DHT22;49000;50.698;13.322;2022-11-23T04:27:38;0.30;99.90
62904;DHT22;49000;50.698;13.322;2022-11-23T04:30:04;0.10;99.90
62904;DHT22;49000;50.698;13.322;2022-11-23T04:32:30;0.30;99.90
62904;DHT22;49000;50.698;13.322;2022-11-23T04:34:56;0.10;99.90
62904;DHT22;49000;50.698;13.322;2022-11-23T04:37:21;0.20;99.90
62904;DHT22;49000;50.698;13.322;2022-11-23T04:39:47;0.00;99.90
62904;DHT22;49000;50.698;13.322;2022-11-23T04:42:12;0.20;99.90
62904;DHT22;49000;50.698;13.322;2022-11-23T04:44:38;0.00;99.90
62904;DHT22;49000;50.698;13.322;2022-11-23T04:47:04;0.10;99.90
62904;DHT22;49000;50.698;13.322;2022-11-23T04:49:29;0.00;99.90
62904;DHT22;49000;50.698;13.322;2022-11-23T04:51:55;0.00;99.90
62904;DHT22;49000;50.698;13.322;2022-11-23T04:54:20;0.00;99.90
62904;DHT22;49000;50.698;13.322;2022-11-23T04:56:46;0.00;99.90
62904;DHT22;49000;50.698;13.322;2022-11-23T04:59:11;-0.30;99.90
62904;DHT22;49000;50.698;13.322;2022-11-23T05:01:37;0.10;99.90
62904;DHT22;49000;50.698;13.322;2022-11-23T05:04:03;0.00;99.90
62904;DHT22;49000;50.698;13.322;2022-11-23T05:06:29;0.00;99.90
62904;DHT22;49000;50.698;13.322;2022-11-23T05:08:54;0.10;99.90
62904;DHT22;49000;50.698;13.322;2022-11-23T05:11:20;-0.10;99.90
62904;DHT22;49000;50.698;13.322;2022-11-23T05:13:45;-0.20;99.90
62904;DHT22;49000;50.698;13.322;2022-11-23T05:16:11;-0.20;99.90
62904;DHT22;49000;50.698;13.322;2022-11-23T05:18:36;0.00;99.90
62904;DHT22;49000;50.698;13.322;2022-11-23T05:21:02;-0.30;99.90
62904;DHT22;49000;50.698;13.322;2022-11-23T05:23:27;-0.20;99.90
62904;DHT22;49000;50.698;13.322;2022-11-23T05:25:53;-0.20;99.90
62904;DHT22;49000;50.698;13.322;2022-11-23T05:28:19;-0.30;99.90
62904;DHT22;49000;50.698;13.322;2022-11-23T05:30:46;-0.10;99.90
62904;DHT22;49000;50.698;13.322;2022-11-23T05:33:12;-0.20;99.90
62904;DHT22;49000;50.698;13.322;2022-11-23T05:35:38;-0.30;99.90
62904;DHT22;49000;50.698;13.322;2022-11-23T05:38:04;0.00;99.90
62904;DHT22;49000;50.698;13.322;2022-11-23T05:40:30;-0.30;99.90
62904;DHT22;49000;50.698;13.322;2022-11-23T05:42:56;-0.30;99.90
62904;DHT22;49000;50.698;13.322;2022-11-23T05:45:22;-0.20;99.90
62904;DHT22;49000;50.698;13.322;2022-11-23T05:47:53;-0.50;99.90
62904;DHT22;49000;50.698;13.322;2022-11-23T05:50:20;-0.40;99.90
62904;DHT22;49000;50.698;13.322;2022-11-23T05:52:46;-0.40;99.90
62904;DHT22;49000;50.698;13.322;2022-11-23T05:55:11;-0.50;99.90
62904;DHT22;49000;50.698;13.322;2022-11-23T05:57:37;-0.40;99.90
62904;DHT22;49000;50.698;13.322;2022-11-23T06:00:07;-0.60;99.90
62904;DHT22;49000;50.698;13.322;2022-11-23T06:02:35;-0.50;99.90
62904;DHT22;49000;50.698;13.322;2022-11-23T06:05:00;-0.40;99.90
62904;DHT22;49000;50.698;13.322;2022-11-23T06:07:25;-0.40;99.90
62904;DHT22;49000;50.698;13.322;2022-11-23T06:09:51;-0.70;99.90
62904;DHT22;49000;50.698;13.322;2022-11-23T06:12:16;-0.70;99.90
62904;DHT22;49000;50.698;13.322;2022-11-23T06:14:42;-1.10;99.90
62904;DHT22;49000;50.698;13.322;2022-11-23T06:17:07;-0.80;99.90
62904;DHT22;49000;50.698;13.322;2022-11-23T06:19:33;-0.70;99.90
62904;DHT22;49000;50.698;13.322;2022-11-23T06:21:59;-0.70;99.90
62904;DHT22;49000;50.698;13.322;2022-11-23T06:24:24;-0.90;99.90
62904;DHT22;49000;50.698;13.322;2022-11-23T06:26:51;-0.80;99.90
62904;DHT22;49000;50.698;13.322;2022-11-23T06:29:17;-0.80;99.90
62904;DHT22;49000;50.698;13.322;2022-11-23T06:31:43;-0.80;99.90
62904;DHT22;49000;50.698;13.322;2022-11-23T06:34:09;-0.90;99.90
62904;DHT22;49000;50.698;13.322;2022-11-23T06:36:34;-0.90;99.90
62904;DHT22;49000;50.698;13.322;2022-11-23T06:39:00;-1.40;99.90
62904;DHT22;49000;50.698;13.322;2022-11-23T06:41:26;-1.10;99.90
62904;DHT22;49000;50.698;13.322;2022-11-23T06:43:52;-1.10;99.90
62904;DHT22;49000;50.698;13.322;2022-11-23T06:46:17;-1.00;99.90
62904;DHT22;49000;50.698;13.322;2022-11-23T06:48:44;-1.10;99.90
62904;DHT22;49000;50.698;13.322;2022-11-23T06:51:11;-1.00;99.90
62904;DHT22;49000;50.698;13.322;2022-11-23T06:53:36;-1.00;99.90
62904;DHT22;49000;50.698;13.322;2022-11-23T06:56:02;-1.20;99.90
62904;DHT22;49000;50.698;13.322;2022-11-23T06:58:28;-1.10;99.90
62904;DHT22;49000;50.698;13.322;2022-11-23T07:01:01;-1.00;99.90
62904;DHT22;49000;50.698;13.322;2022-11-23T07:03:27;-1.20;99.90
62904;DHT22;49000;50.698;13.322;2022-11-23T07:05:52;-1.30;99.90
62904;DHT22;49000;50.698;13.322;2022-11-23T07:08:18;-1.20;99.90
62904;DHT22;49000;50.698;13.322;2022-11-23T07:10:44;-1.40;99.90
62904;DHT22;49000;50.698;13.322;2022-11-23T07:13:10;-1.10;99.90
62904;DHT22;49000;50.698;13.322;2022-11-23T07:15:37;-1.10;99.90
62904;DHT22;49000;50.698;13.322;2022-11-23T07:18:03;-1.20;99.90
62904;DHT22;49000;50.698;13.322;2022-11-23T07:20:29;-1.30;99.90
62904;DHT22;49000;50.698;13.322;2022-11-23T07:23:02;-1.00;99.90
62904;DHT22;49000;50.698;13.322;2022-11-23T07:25:29;-1.10;99.90
62904;DHT22;49000;50.698;13.322;2022-11-23T07:27:59;-1.10;99.90
62904;DHT22;49000;50.698;13.322;2022-11-23T07:30:26;-1.00;99.90
62904;DHT22;49000;50.698;13.322;2022-11-23T07:32:52;-1.10;99.90
62904;DHT22;49000;50.698;13.322;2022-11-23T07:35:19;-1.20;99.90
62904;DHT22;49000;50.698;13.322;2022-11-23T07:37:45;-1.00;99.90
62904;DHT22;49000;50.698;13.322;2022-11-23T07:40:11;-0.80;99.90
62904;DHT22;49000;50.698;13.322;2022-11-23T07:42:36;-1.00;99.90
62904;DHT22;49000;50.698;13.322;2022-11-23T07:45:03;-0.80;99.90
62904;DHT22;49000;50.698;13.322;2022-11-23T07:47:29;-0.70;99.90
62904;DHT22;49000;50.698;13.322;2022-11-23T07:49:55;-0.80;99.90
62904;DHT22;49000;50.698;13.322;2022-11-23T07:52:20;-0.80;99.90
62904;DHT22;49000;50.698;13.322;2022-11-23T07:54:46;-0.70;99.90
62904;DHT22;49000;50.698;13.322;2022-11-23T07:57:12;-0.60;99.90
62904;DHT22;49000;50.698;13.322;2022-11-23T07:59:37;-0.40;99.90
62904;DHT22;49000;50.698;13.322;2022-11-23T08:02:03;-0.30;99.90
62904;DHT22;49000;50.698;13.322;2022-11-23T08:04:28;-0.50;99.90
62904;DHT22;49000;50.698;13.322;2022-11-23T08:06:54;-0.40;99.90
62904;DHT22;49000;50.698;13.322;2022-11-23T08:09:20;-0.30;99.90
62904;DHT22;49000;50.698;13.322;2022-11-23T08:11:45;-0.30;99.90
62904;DHT22;49000;50.698;13.322;2022-11-23T08:14:11;-0.60;99.90
62904;DHT22;49000;50.698;13.322;2022-11-23T08:16:37;0.00;99.90
62904;DHT22;49000;50.698;13.322;2022-11-23T08:19:02;-0.10;99.90
62904;DHT22;49000;50.698;13.322;2022-11-23T08:21:28;0.20;99.90
62904;DHT22;49000;50.698;13.322;2022-11-23T08:23:53;-0.30;99.90
62904;DHT22;49000;50.698;13.322;2022-11-23T08:26:19;0.20;99.90
62904;DHT22;49000;50.698;13.322;2022-11-23T08:28:44;0.00;99.90
62904;DHT22;49000;50.698;13.322;2022-11-23T08:31:10;0.30;99.90
62904;DHT22;49000;50.698;13.322;2022-11-23T08:33:38;0.30;99.90
62904;DHT22;49000;50.698;13.322;2022-11-23T08:36:04;-0.20;99.90
62904;DHT22;49000;50.698;13.322;2022-11-23T08:38:31;0.40;99.90
62904;DHT22;49000;50.698;13.322;2022-11-23T08:40:58;0.60;99.90
62904;DHT22;49000;50.698;13.322;2022-11-23T08:43:24;0.60;99.90
62904;DHT22;49000;50.698;13.322;2022-11-23T08:45:56;0.60;99.90
62904;DHT22;49000;50.698;13.322;2022-11-23T08:48:22;0.70;99.90
62904;DHT22;49000;50.698;13.322;2022-11-23T08:50:47;0.60;99.90
62904;DHT22;49000;50.698;13.322;2022-11-23T08:53:13;0.40;99.90
62904;DHT22;49000;50.698;13.322;2022-11-23T08:55:39;0.80;99.90
62904;DHT22;49000;50.698;13.322;2022-11-23T08:58:04;0.70;99.90
62904;DHT22;49000;50.698;13.322;2022-11-23T09:00:31;0.70;99.90
62904;DHT22;49000;50.698;13.322;2022-11-23T09:02:57;0.50;99.90
62904;DHT22;49000;50.698;13.322;2022-11-23T09:05:23;0.30;99.90
62904;DHT22;49000;50.698;13.322;2022-11-23T09:07:49;0.40;99.90
62904;DHT22;49000;50.698;13.322;2022-11-23T09:10:15;0.80;99.90
62904;DHT22;49000;50.698;13.322;2022-11-23T09:12:41;0.70;99.90
62904;DHT22;49000;50.698;13.322;2022-11-23T09:15:07;0.70;99.90
62904;DHT22;49000;50.698;13.322;2022-11-23T09:17:32;0.90;99.90
62904;DHT22;49000;50.698;13.322;2022-11-23T09:19:58;0.80;99.90
62904;DHT22;49000;50.698;13.322;2022-11-23T09:22:24;0.80;99.90
62904;DHT22;49000;50.698;13.322;2022-11-23T09:24:51;0.90;99.90
62904;DHT22;49000;50.698;13.322;2022-11-23T09:27:17;1.20;99.90
62904;DHT22;49000;50.698;13.322;2022-11-23T09:29:42;1.10;99.90
62904;DHT22;49000;50.698;13.322;2022-11-23T09:32:08;1.20;99.90
62904;DHT22;49000;50.698;13.322;2022-11-23T09:34:33;1.30;99.90
62904;DHT22;49000;50.698;13.322;2022-11-23T09:36:59;1.30;99.90
62904;DHT22;49000;50.698;13.322;2022-11-23T09:39:24;1.60;99.90
62904;DHT22;49000;50.698;13.322;2022-11-23T09:47:46;1.90;99.90
62904;DHT22;49000;50.698;13.322;2022-11-23T09:53:10;2.40;99.90
62904;DHT22;49000;50.698;13.322;2022-11-23T09:55:41;2.60;99.90
62904;DHT22;49000;50.698;13.322;2022-11-23T09:58:12;2.40;99.90
62904;DHT22;49000;50.698;13.322;2022-11-23T10:00:52;2.70;99.90
62904;DHT22;49000;50.698;13.322;2022-11-23T10:03:20;2.80;99.90
62904;DHT22;49000;50.698;13.322;2022-11-23T10:06:10;2.80;99.90
62904;DHT22;49000;50.698;13.322;2022-11-23T10:17:16;3.60;99.90
62904;DHT22;49000;50.698;13.322;2022-11-23T10:20:16;4.00;99.90
62904;DHT22;49000;50.698;13.322;2022-11-23T10:22:50;4.30;99.90
62904;DHT22;49000;50.698;13.322;2022-11-23T10:25:19;4.50;99.90
62904;DHT22;49000;50.698;13.322;2022-11-23T10:27:47;4.50;99.90
62904;DHT22;49000;50.698;13.322;2022-11-23T10:30:15;4.50;99.90
62904;DHT22;49000;50.698;13.322;2022-11-23T10:35:33;4.70;99.90
62904;DHT22;49000;50.698;13.322;2022-11-23T10:38:13;5.10;99.90
62904;DHT22;49000;50.698;13.322;2022-11-23T10:40:44;5.30;99.90
62904;DHT22;49000;50.698;13.322;2022-11-23T10:43:17;5.40;99.90
62904;DHT22;49000;50.698;13.322;2022-11-23T10:45:45;5.50;99.90
62904;DHT22;49000;50.698;13.322;2022-11-23T10:48:11;5.80;99.90
62904;DHT22;49000;50.698;13.322;2022-11-23T10:50:38;5.50;99.90
62904;DHT22;49000;50.698;13.322;2022-11-23T10:55:33;6.20;99.90
62904;DHT22;49000;50.698;13.322;2022-11-23T10:58:26;5.80;99.90
62904;DHT22;49000;50.698;13.322;2022-11-23T11:01:04;6.80;99.90
62904;DHT22;49000;50.698;13.322;2022-11-23T11:03:32;6.40;99.90
62904;DHT22;49000;50.698;13.322;2022-11-23T11:05:58;6.60;99.90
62904;DHT22;49000;50.698;13.322;2022-11-23T11:08:29;6.70;99.90
62904;DHT22;49000;50.698;13.322;2022-11-23T11:11:07;6.60;99.90
62904;DHT22;49000;50.698;13.322;2022-11-23T11:13:41;6.50;99.90
62904;DHT22;49000;50.698;13.322;2022-11-23T11:16:26;6.20;99.90
62904;DHT22;49000;50.698;13.322;2022-11-23T11:18:55;6.50;99.90
62904;DHT22;49000;50.698;13.322;2022-11-23T11:21:32;6.20;99.90
62904;DHT22;49000;50.698;13.322;2022-11-23T11:24:04;6.70;99.90
62904;DHT22;49000;50.698;13.322;2022-11-23T11:26:33;6.60;99.90
62904;DHT22;49000;50.698;13.322;2022-11-23T11:29:02;6.30;99.90
62904;DHT22;49000;50.698;13.322;2022-11-23T11:36:43;6.90;99.90
62904;DHT22;49000;50.698;13.322;2022-11-23T11:39:33;6.60;99.90
62904;DHT22;49000;50.698;13.322;2022-11-23T11:42:04;6.20;99.90
62904;DHT22;49000;50.698;13.322;2022-11-23T11:44:33;6.70;99.90
62904;DHT22;49000;50.698;13.322;2022-11-23T11:49:49;6.60;99.90
62904;DHT22;49000;50.698;13.322;2022-11-23T11:52:29;6.50;99.90
62904;DHT22;49000;50.698;13.322;2022-11-23T11:55:22;6.70;99.90
62904;DHT22;49000;50.698;13.322;2022-11-23T11:57:55;6.70;99.90
62904;DHT22;49000;50.698;13.322;2022-11-23T12:00:23;6.80;99.90
62904;DHT22;49000;50.698;13.322;2022-11-23T12:06:00;6.80;99.90
62904;DHT22;49000;50.698;13.322;2022-11-23T12:11:00;6.40;99.90
62904;DHT22;49000;50.698;13.322;2022-11-23T12:13:32;6.70;99.90
62904;DHT22;49000;50.698;13.322;2022-11-23T12:19:18;6.80;99.90
62904;DHT22;49000;50.698;13.322;2022-11-23T12:30:22;7.00;99.90
62904;DHT22;49000;50.698;13.322;2022-11-23T12:35:54;7.10;99.90
62904;DHT22;49000;50.698;13.322;2022-11-23T12:38:50;7.30;99.90
62904;DHT22;49000;50.698;13.322;2022-11-23T12:52:21;7.30;99.90
62904;DHT22;49000;50.698;13.322;2022-11-23T12:55:00;7.20;99.90
62904;DHT22;49000;50.698;13.322;2022-11-23T12:57:33;7.20;99.90
62904;DHT22;49000;50.698;13.322;2022-11-23T13:00:06;7.00;99.90
62904;DHT22;49000;50.698;13.322;2022-11-23T13:03:00;7.30;99.90
62904;DHT22;49000;50.698;13.322;2022-11-23T13:14:11;7.00;99.90
62904;DHT22;49000;50.698;13.322;2022-11-23T13:19:38;7.40;99.90
62904;DHT22;49000;50.698;13.322;2022-11-23T13:22:12;6.80;99.90
62904;DHT22;49000;50.698;13.322;2022-11-23T13:24:59;7.30;99.90
62904;DHT22;49000;50.698;13.322;2022-11-23T13:27:27;7.20;99.90
62904;DHT22;49000;50.698;13.322;2022-11-23T13:29:56;6.90;99.90
62904;DHT22;49000;50.698;13.322;2022-11-23T13:42:52;5.80;99.90
62904;DHT22;49000;50.698;13.322;2022-11-23T13:48:10;6.20;99.90
62904;DHT22;49000;50.698;13.322;2022-11-23T13:50:39;6.30;99.90
62904;DHT22;49000;50.698;13.322;2022-11-23T13:55:56;6.10;99.90
62904;DHT22;49000;50.698;13.322;2022-11-23T14:00:55;6.10;99.90
62904;DHT22;49000;50.698;13.322;2022-11-23T14:03:48;6.40;99.90
62904;DHT22;49000;50.698;13.322;2022-11-23T14:20:24;5.80;99.90
62904;DHT22;49000;50.698;13.322;2022-11-23T14:31:25;5.70;99.90
62904;DHT22;49000;50.698;13.322;2022-11-23T14:34:13;5.30;99.90
62904;DHT22;49000;50.698;13.322;2022-11-23T14:36:53;5.60;99.90
62904;DHT22;49000;50.698;13.322;2022-11-23T14:42:26;5.30;99.90
62904;DHT22;49000;50.698;13.322;2022-11-23T14:44:52;5.30;99.90
62904;DHT22;49000;50.698;13.322;2022-11-23T14:47:26;5.00;99.90
62904;DHT22;49000;50.698;13.322;2022-11-23T14:49:53;5.10;99.90
62904;DHT22;49000;50.698;13.322;2022-11-23T14:52:21;5.30;99.90
62904;DHT22;49000;50.698;13.322;2022-11-23T14:54:49;5.30;99.90
62904;DHT22;49000;50.698;13.322;2022-11-23T14:57:17;4.80;99.90
62904;DHT22;49000;50.698;13.322;2022-11-23T14:59:47;5.10;99.90
62904;DHT22;49000;50.698;13.322;2022-11-23T15:02:18;4.70;99.90
62904;DHT22;49000;50.698;13.322;2022-11-23T15:07:26;4.80;99.90
62904;DHT22;49000;50.698;13.322;2022-11-23T15:10:19;4.90;99.90
62904;DHT22;49000;50.698;13.322;2022-11-23T15:12:48;5.00;99.90
62904;DHT22;49000;50.698;13.322;2022-11-23T15:15:22;4.50;99.90
62904;DHT22;49000;50.698;13.322;2022-11-23T15:17:56;4.80;99.90
62904;DHT22;49000;50.698;13.322;2022-11-23T15:20:24;4.50;99.90
62904;DHT22;49000;50.698;13.322;2022-11-23T15:22:51;4.20;99.90
62904;DHT22;49000;50.698;13.322;2022-11-23T15:25:17;4.40;99.90
62904;DHT22;49000;50.698;13.322;2022-11-23T15:27:46;4.30;99.90
62904;DHT22;49000;50.698;13.322;2022-11-23T15:32:42;3.90;99.90
62904;DHT22;49000;50.698;13.322;2022-11-23T15:35:13;4.10;99.90
62904;DHT22;49000;50.698;13.322;2022-11-23T15:37:45;3.90;99.90
62904;DHT22;49000;50.698;13.322;2022-11-23T15:40:16;3.60;99.90
62904;DHT22;49000;50.698;13.322;2022-11-23T15:42:47;3.10;99.90
62904;DHT22;49000;50.698;13.322;2022-11-23T15:45:33;3.70;99.90
62904;DHT22;49000;50.698;13.322;2022-11-23T15:48:03;3.50;99.90
62904;DHT22;49000;50.698;13.322;2022-11-23T15:50:29;3.60;99.90
62904;DHT22;49000;50.698;13.322;2022-11-23T15:52:58;3.40;99.90
62904;DHT22;49000;50.698;13.322;2022-11-23T15:55:24;3.40;99.90
62904;DHT22;49000;50.698;13.322;2022-11-23T15:57:54;3.10;99.90
62904;DHT22;49000;50.698;13.322;2022-11-23T16:00:22;3.10;99.90
62904;DHT22;49000;50.698;13.322;2022-11-23T16:02:50;3.10;99.90
62904;DHT22;49000;50.698;13.322;2022-11-23T16:05:19;3.10;99.90
62904;DHT22;49000;50.698;13.322;2022-11-23T16:07:57;2.70;99.90
62904;DHT22;49000;50.698;13.322;2022-11-23T16:10:25;3.20;99.90
62904;DHT22;49000;50.698;13.322;2022-11-23T16:12:52;2.70;99.90
62904;DHT22;49000;50.698;13.322;2022-11-23T16:17:57;2.80;99.90
62904;DHT22;49000;50.698;13.322;2022-11-23T16:20:24;3.00;99.90
62904;DHT22;49000;50.698;13.322;2022-11-23T16:22:52;2.80;99.90
62904;DHT22;49000;50.698;13.322;2022-11-23T16:25:27;2.90;99.90
62904;DHT22;49000;50.698;13.322;2022-11-23T16:27:58;2.80;99.90
62904;DHT22;49000;50.698;13.322;2022-11-23T16:30:26;2.60;99.90
62904;DHT22;49000;50.698;13.322;2022-11-23T16:32:52;2.80;99.90
62904;DHT22;49000;50.698;13.322;2022-11-23T16:35:19;2.60;99.90
62904;DHT22;49000;50.698;13.322;2022-11-23T16:37:45;2.40;99.90
62904;DHT22;49000;50.698;13.322;2022-11-23T16:40:12;2.00;99.90
62904;DHT22;49000;50.698;13.322;2022-11-23T16:42:38;2.30;99.90
62904;DHT22;49000;50.698;13.322;2022-11-23T16:45:04;2.50;99.90
62904;DHT22;49000;50.698;13.322;2022-11-23T16:47:31;2.40;99.90
62904;DHT22;49000;50.698;13.322;2022-11-23T16:49:56;2.50;99.90
62904;DHT22;49000;50.698;13.322;2022-11-23T16:52:22;2.20;99.90
62904;DHT22;49000;50.698;13.322;2022-11-23T16:54:48;2.20;99.90
62904;DHT22;49000;50.698;13.322;2022-11-23T16:57:25;2.20;99.90
62904;DHT22;49000;50.698;13.322;2022-11-23T16:59:52;2.10;99.90
62904;DHT22;49000;50.698;13.322;2022-11-23T17:02:17;2.20;99.90
62904;DHT22;49000;50.698;13.322;2022-11-23T17:04:43;2.40;99.90
62904;DHT22;49000;50.698;13.322;2022-11-23T17:07:09;2.10;99.90
62904;DHT22;49000;50.698;13.322;2022-11-23T17:09:34;2.10;99.90
62904;DHT22;49000;50.698;13.322;2022-11-23T17:12:00;1.80;99.90
62904;DHT22;49000;50.698;13.322;2022-11-23T17:14:27;2.10;99.90
62904;DHT22;49000;50.698;13.322;2022-11-23T17:16:54;2.20;99.90
62904;DHT22;49000;50.698;13.322;2022-11-23T17:19:20;1.70;99.90
62904;DHT22;49000;50.698;13.322;2022-11-23T17:21:47;2.00;99.90
62904;DHT22;49000;50.698;13.322;2022-11-23T17:24:13;1.80;99.90
62904;DHT22;49000;50.698;13.322;2022-11-23T17:26:47;1.80;99.90
62904;DHT22;49000;50.698;13.322;2022-11-23T17:29:17;1.50;99.90
62904;DHT22;49000;50.698;13.322;2022-11-23T17:31:44;2.00;99.90
62904;DHT22;49000;50.698;13.322;2022-11-23T17:34:11;2.00;99.90
62904;DHT22;49000;50.698;13.322;2022-11-23T17:36:37;2.10;99.90
62904;DHT22;49000;50.698;13.322;2022-11-23T17:39:03;1.70;99.90
62904;DHT22;49000;50.698;13.322;2022-11-23T17:41:28;2.00;99.90
62904;DHT22;49000;50.698;13.322;2022-11-23T17:43:54;1.70;99.90